sensor_id;sensor_type;location;lat;lon;timestamp;temperature;humidity
10296;DHT22;5193;51.032;6.356;2022-12-18T00:00:42;-6.20;99.90
10296;DHT22;5193;51.032;6.356;2022-12-18T00:03:07;-6.20;99.90
10296;DHT22;5193;51.032;6.356;2022-12-18T00:05:33;-6.20;99.90
10296;DHT22;5193;51.032;6.356;2022-12-18T00:07:58;-6.30;99.90
10296;DHT22;5193;51.032;6.356;2022-12-18T00:10:24;-6.20;99.90
10296;DHT22;5193;51.032;6.356;2022-12-18T00:12:49;-6.30;99.90
10296;DHT22;5193;51.032;6.356;2022-12-18T00:15:15;-6.30;99.90
10296;DHT22;5193;51.032;6.356;2022-12-18T00:17:41;-6.30;99.90
10296;DHT22;5193;51.032;6.356;2022-12-18T00:20:07;-6.30;99.90
10296;DHT22;5193;51.032;6.356;2022-12-18T00:22:33;-6.30;99.90
10296;DHT22;5193;51.032;6.356;2022-12-18T00:24:58;-6.30;99.90
10296;DHT22;5193;51.032;6.356;2022-12-18T00:27:24;-6.30;99.90
10296;DHT22;5193;51.032;6.356;2022-12-18T00:29:50;-6.20;99.90
10296;DHT22;5193;51.032;6.356;2022-12-18T00:32:15;-6.20;99.90
10296;DHT22;5193;51.032;6.356;2022-12-18T00:34:41;-6.20;99.90
10296;DHT22;5193;51.032;6.356;2022-12-18T00:37:07;-6.20;99.90
10296;DHT22;5193;51.032;6.356;2022-12-18T00:39:32;-6.10;99.90
10296;DHT22;5193;51.032;6.356;2022-12-18T00:41:58;-5.90;99.90
10296;DHT22;5193;51.032;6.356;2022-12-18T00:44:42;-6.10;99.90
10296;DHT22;5193;51.032;6.356;2022-12-18T00:47:07;-6.00;99.90
10296;DHT22;5193;51.032;6.356;2022-12-18T00:49:33;-6.00;99.90
10296;DHT22;5193;51.032;6.356;2022-12-18T00:51:58;-5.90;99.90
10296;DHT22;5193;51.032;6.356;2022-12-18T00:54:24;-6.00;99.90
10296;DHT22;5193;51.032;6.356;2022-12-18T00:56:50;-5.90;99.90
10296;DHT22;5193;51.032;6.356;2022-12-18T00:59:18;-5.80;99.90
10296;DHT22;5193;51.032;6.356;2022-12-18T01:01:44;-5.80;99.90
10296;DHT22;5193;51.032;6.356;2022-12-18T01:04:10;-5.70;99.90
10296;DHT22;5193;51.032;6.356;2022-12-18T01:06:35;-5.80;99.90
10296;DHT22;5193;51.032;6.356;2022-12-18T01:09:01;-5.00;99.90
10296;DHT22;5193;51.032;6.356;2022-12-18T01:11:27;-5.70;99.90
10296;DHT22;5193;51.032;6.356;2022-12-18T01:13:53;-5.70;99.90
10296;DHT22;5193;51.032;6.356;2022-12-18T01:16:19;-5.70;99.90
10296;DHT22;5193;51.032;6.356;2022-12-18T01:18:45;-5.70;99.90
10296;DHT22;5193;51.032;6.356;2022-12-18T01:21:14;-5.70;99.90
10296;DHT22;5193;51.032;6.356;2022-12-18T01:23:39;-5.70;99.90
10296;DHT22;5193;51.032;6.356;2022-12-18T01:26:11;-5.70;99.90
10296;DHT22;5193;51.032;6.356;2022-12-18T01:28:37;-5.80;99.90
10296;DHT22;5193;51.032;6.356;2022-12-18T01:31:20;-5.70;99.90
10296;DHT22;5193;51.032;6.356;2022-12-18T01:33:48;-5.80;99.90
10296;DHT22;5193;51.032;6.356;2022-12-18T01:36:25;-5.80;99.90
10296;DHT22;5193;51.032;6.356;2022-12-18T01:38:52;-5.80;99.90
10296;DHT22;5193;51.032;6.356;2022-12-18T01:41:24;-5.80;99.90
10296;DHT22;5193;51.032;6.356;2022-12-18T01:43:57;-5.80;99.90
10296;DHT22;5193;51.032;6.356;2022-12-18T01:46:24;-5.70;99.90
10296;DHT22;5193;51.032;6.356;2022-12-18T01:49:00;-5.80;99.90
10296;DHT22;5193;51.032;6.356;2022-12-18T01:51:27;-5.80;99.90
10296;DHT22;5193;51.032;6.356;2022-12-18T01:53:55;-5.80;99.90
10296;DHT22;5193;51.032;6.356;2022-12-18T01:56:21;-5.80;99.90
10296;DHT22;5193;51.032;6.356;2022-12-18T01:58:58;-5.80;99.90
10296;DHT22;5193;51.032;6.356;2022-12-18T02:01:26;-5.80;99.90
10296;DHT22;5193;51.032;6.356;2022-12-18T02:03:52;-5.80;99.90
10296;DHT22;5193;51.032;6.356;2022-12-18T02:06:29;-5.80;99.90
10296;DHT22;5193;51.032;6.356;2022-12-18T02:09:09;-5.90;99.90
10296;DHT22;5193;51.032;6.356;2022-12-18T02:11:59;-5.80;99.90
10296;DHT22;5193;51.032;6.356;2022-12-18T02:14:35;-5.70;99.90
10296;DHT22;5193;51.032;6.356;2022-12-18T02:17:18;-5.80;99.90
10296;DHT22;5193;51.032;6.356;2022-12-18T02:19:54;-5.80;99.90
10296;DHT22;5193;51.032;6.356;2022-12-18T02:23:16;-5.80;99.90
10296;DHT22;5193;51.032;6.356;2022-12-18T02:28:20;-5.90;99.90
10296;DHT22;5193;51.032;6.356;2022-12-18T02:30:49;-5.90;99.90
10296;DHT22;5193;51.032;6.356;2022-12-18T02:33:16;-5.90;99.90
10296;DHT22;5193;51.032;6.356;2022-12-18T02:35:44;-6.00;99.90
10296;DHT22;5193;51.032;6.356;2022-12-18T02:38:11;-6.00;99.90
10296;DHT22;5193;51.032;6.356;2022-12-18T02:40:38;-6.00;99.90
10296;DHT22;5193;51.032;6.356;2022-12-18T02:43:13;-6.00;99.90
10296;DHT22;5193;51.032;6.356;2022-12-18T02:45:50;-6.10;99.90
10296;DHT22;5193;51.032;6.356;2022-12-18T02:48:19;-6.10;99.90
10296;DHT22;5193;51.032;6.356;2022-12-18T02:51:29;-6.10;99.90
10296;DHT22;5193;51.032;6.356;2022-12-18T02:54:01;-6.10;99.90
10296;DHT22;5193;51.032;6.356;2022-12-18T02:56:42;-6.10;99.90
10296;DHT22;5193;51.032;6.356;2022-12-18T02:59:16;-6.10;99.90
10296;DHT22;5193;51.032;6.356;2022-12-18T03:04:30;-6.10;99.90
10296;DHT22;5193;51.032;6.356;2022-12-18T03:06:59;-6.10;99.90
10296;DHT22;5193;51.032;6.356;2022-12-18T03:09:32;-6.10;99.90
10296;DHT22;5193;51.032;6.356;2022-12-18T03:12:18;-6.10;99.90
10296;DHT22;5193;51.032;6.356;2022-12-18T03:15:00;-6.10;99.90
10296;DHT22;5193;51.032;6.356;2022-12-18T03:17:29;-6.00;99.90
10296;DHT22;5193;51.032;6.356;2022-12-18T03:19:59;-6.10;99.90
10296;DHT22;5193;51.032;6.356;2022-12-18T03:22:28;-6.00;99.90
10296;DHT22;5193;51.032;6.356;2022-12-18T03:24:56;-5.90;99.90
10296;DHT22;5193;51.032;6.356;2022-12-18T03:27:24;-5.90;99.90
10296;DHT22;5193;51.032;6.356;2022-12-18T03:30:02;-5.90;99.90
10296;DHT22;5193;51.032;6.356;2022-12-18T03:32:42;-5.90;99.90
10296;DHT22;5193;51.032;6.356;2022-12-18T03:35:10;-5.90;99.90
10296;DHT22;5193;51.032;6.356;2022-12-18T03:37:37;-5.80;99.90
10296;DHT22;5193;51.032;6.356;2022-12-18T03:40:03;-5.80;99.90
10296;DHT22;5193;51.032;6.356;2022-12-18T03:42:51;-5.70;99.90
10296;DHT22;5193;51.032;6.356;2022-12-18T03:45:24;-5.70;99.90
10296;DHT22;5193;51.032;6.356;2022-12-18T03:48:08;-5.70;99.90
10296;DHT22;5193;51.032;6.356;2022-12-18T03:53:32;-5.70;99.90
10296;DHT22;5193;51.032;6.356;2022-12-18T03:55:59;-5.70;99.90
10296;DHT22;5193;51.032;6.356;2022-12-18T03:58:26;-5.60;99.90
10296;DHT22;5193;51.032;6.356;2022-12-18T04:00:55;-5.70;99.90
10296;DHT22;5193;51.032;6.356;2022-12-18T04:03:22;-5.70;99.90
10296;DHT22;5193;51.032;6.356;2022-12-18T04:05:52;-5.80;99.90
10296;DHT22;5193;51.032;6.356;2022-12-18T04:08:20;-5.70;99.90
10296;DHT22;5193;51.032;6.356;2022-12-18T04:10:46;-5.70;99.90
10296;DHT22;5193;51.032;6.356;2022-12-18T04:13:12;-5.70;99.90
10296;DHT22;5193;51.032;6.356;2022-12-18T04:15:38;-5.70;99.90
10296;DHT22;5193;51.032;6.356;2022-12-18T04:18:04;-5.70;99.90
10296;DHT22;5193;51.032;6.356;2022-12-18T04:20:30;-5.70;99.90
10296;DHT22;5193;51.032;6.356;2022-12-18T04:22:55;-5.70;99.90
10296;DHT22;5193;51.032;6.356;2022-12-18T04:25:21;-5.80;99.90
10296;DHT22;5193;51.032;6.356;2022-12-18T04:27:46;-5.80;99.90
10296;DHT22;5193;51.032;6.356;2022-12-18T04:30:12;-5.80;99.90
10296;DHT22;5193;51.032;6.356;2022-12-18T04:32:38;-5.90;99.90
10296;DHT22;5193;51.032;6.356;2022-12-18T04:35:04;-5.90;99.90
10296;DHT22;5193;51.032;6.356;2022-12-18T04:37:32;-6.00;99.90
10296;DHT22;5193;51.032;6.356;2022-12-18T04:39:57;-6.00;99.90
10296;DHT22;5193;51.032;6.356;2022-12-18T04:42:23;-6.00;99.90
10296;DHT22;5193;51.032;6.356;2022-12-18T04:44:49;-6.00;99.90
10296;DHT22;5193;51.032;6.356;2022-12-18T04:47:14;-6.00;99.90
10296;DHT22;5193;51.032;6.356;2022-12-18T04:49:40;-6.00;99.90
10296;DHT22;5193;51.032;6.356;2022-12-18T04:52:06;-6.00;99.90
10296;DHT22;5193;51.032;6.356;2022-12-18T04:54:32;-6.00;99.90
10296;DHT22;5193;51.032;6.356;2022-12-18T04:56:58;-6.00;99.90
10296;DHT22;5193;51.032;6.356;2022-12-18T04:59:23;-6.10;99.90
10296;DHT22;5193;51.032;6.356;2022-12-18T05:01:49;-6.10;99.90
10296;DHT22;5193;51.032;6.356;2022-12-18T05:04:14;-6.10;99.90
10296;DHT22;5193;51.032;6.356;2022-12-18T05:06:40;-6.10;99.90
10296;DHT22;5193;51.032;6.356;2022-12-18T05:09:06;-6.10;99.90
10296;DHT22;5193;51.032;6.356;2022-12-18T05:11:31;-6.10;99.90
10296;DHT22;5193;51.032;6.356;2022-12-18T05:13:57;-6.00;99.90
10296;DHT22;5193;51.032;6.356;2022-12-18T05:16:22;-6.00;99.90
10296;DHT22;5193;51.032;6.356;2022-12-18T05:18:48;-6.00;99.90
10296;DHT22;5193;51.032;6.356;2022-12-18T05:21:14;-6.10;99.90
10296;DHT22;5193;51.032;6.356;2022-12-18T05:23:39;-6.00;99.90
10296;DHT22;5193;51.032;6.356;2022-12-18T05:26:06;-6.00;99.90
10296;DHT22;5193;51.032;6.356;2022-12-18T05:28:33;-6.00;99.90
10296;DHT22;5193;51.032;6.356;2022-12-18T05:31:01;-6.10;99.90
10296;DHT22;5193;51.032;6.356;2022-12-18T05:33:30;-6.10;99.90
10296;DHT22;5193;51.032;6.356;2022-12-18T05:35:58;-6.10;99.90
10296;DHT22;5193;51.032;6.356;2022-12-18T05:38:25;-6.10;99.90
10296;DHT22;5193;51.032;6.356;2022-12-18T05:40:51;-6.10;99.90
10296;DHT22;5193;51.032;6.356;2022-12-18T05:43:18;-6.20;99.90
10296;DHT22;5193;51.032;6.356;2022-12-18T05:45:44;-6.10;99.90
10296;DHT22;5193;51.032;6.356;2022-12-18T05:48:12;-6.10;99.90
10296;DHT22;5193;51.032;6.356;2022-12-18T05:50:39;-6.10;99.90
10296;DHT22;5193;51.032;6.356;2022-12-18T05:53:06;-6.00;99.90
10296;DHT22;5193;51.032;6.356;2022-12-18T05:55:35;-6.00;99.90
10296;DHT22;5193;51.032;6.356;2022-12-18T05:58:02;-6.10;99.90
10296;DHT22;5193;51.032;6.356;2022-12-18T06:00:28;-6.00;99.90
10296;DHT22;5193;51.032;6.356;2022-12-18T06:02:54;-6.10;99.90
10296;DHT22;5193;51.032;6.356;2022-12-18T06:05:20;-6.10;99.90
10296;DHT22;5193;51.032;6.356;2022-12-18T06:07:45;-6.00;99.90
10296;DHT22;5193;51.032;6.356;2022-12-18T06:10:11;-5.90;99.90
10296;DHT22;5193;51.032;6.356;2022-12-18T06:12:37;-5.90;99.90
10296;DHT22;5193;51.032;6.356;2022-12-18T06:15:03;-5.90;99.90
10296;DHT22;5193;51.032;6.356;2022-12-18T06:17:30;-5.80;99.90
10296;DHT22;5193;51.032;6.356;2022-12-18T06:19:56;-5.80;99.90
10296;DHT22;5193;51.032;6.356;2022-12-18T06:22:22;-5.70;99.90
10296;DHT22;5193;51.032;6.356;2022-12-18T06:24:47;-5.60;99.90
10296;DHT22;5193;51.032;6.356;2022-12-18T06:27:13;-5.70;99.90
10296;DHT22;5193;51.032;6.356;2022-12-18T06:29:38;-5.60;99.90
10296;DHT22;5193;51.032;6.356;2022-12-18T06:32:04;-5.60;99.90
10296;DHT22;5193;51.032;6.356;2022-12-18T06:34:30;-5.60;99.90
10296;DHT22;5193;51.032;6.356;2022-12-18T06:36:56;-5.60;99.90
10296;DHT22;5193;51.032;6.356;2022-12-18T06:39:22;-5.60;99.90
10296;DHT22;5193;51.032;6.356;2022-12-18T06:41:47;-5.60;99.90
10296;DHT22;5193;51.032;6.356;2022-12-18T06:44:13;-5.60;99.90
10296;DHT22;5193;51.032;6.356;2022-12-18T06:46:38;-5.60;99.90
10296;DHT22;5193;51.032;6.356;2022-12-18T06:49:04;-5.60;99.90
10296;DHT22;5193;51.032;6.356;2022-12-18T06:51:30;-5.60;99.90
10296;DHT22;5193;51.032;6.356;2022-12-18T06:53:55;-5.60;99.90
10296;DHT22;5193;51.032;6.356;2022-12-18T06:56:21;-5.60;99.90
10296;DHT22;5193;51.032;6.356;2022-12-18T06:58:47;-5.60;99.90
10296;DHT22;5193;51.032;6.356;2022-12-18T07:01:13;-5.60;99.90
10296;DHT22;5193;51.032;6.356;2022-12-18T07:03:40;-5.60;99.90
10296;DHT22;5193;51.032;6.356;2022-12-18T07:06:06;-5.60;99.90
10296;DHT22;5193;51.032;6.356;2022-12-18T07:08:32;-5.60;99.90
10296;DHT22;5193;51.032;6.356;2022-12-18T07:10:58;-5.60;99.90
10296;DHT22;5193;51.032;6.356;2022-12-18T07:13:23;-5.50;99.90
10296;DHT22;5193;51.032;6.356;2022-12-18T07:15:49;-5.50;99.90
10296;DHT22;5193;51.032;6.356;2022-12-18T07:18:14;-5.50;99.90
10296;DHT22;5193;51.032;6.356;2022-12-18T07:20:40;-5.50;99.90
10296;DHT22;5193;51.032;6.356;2022-12-18T07:23:06;-5.50;99.90
10296;DHT22;5193;51.032;6.356;2022-12-18T07:25:35;-5.50;99.90
10296;DHT22;5193;51.032;6.356;2022-12-18T07:28:02;-5.50;99.90
10296;DHT22;5193;51.032;6.356;2022-12-18T07:30:28;-5.50;99.90
10296;DHT22;5193;51.032;6.356;2022-12-18T07:32:53;-5.50;99.90
10296;DHT22;5193;51.032;6.356;2022-12-18T07:35:19;-5.50;99.90
10296;DHT22;5193;51.032;6.356;2022-12-18T07:37:44;-5.60;99.90
10296;DHT22;5193;51.032;6.356;2022-12-18T07:40:11;-5.60;99.90
10296;DHT22;5193;51.032;6.356;2022-12-18T07:42:37;-5.60;99.90
10296;DHT22;5193;51.032;6.356;2022-12-18T07:45:03;-5.60;99.90
10296;DHT22;5193;51.032;6.356;2022-12-18T07:47:29;-5.60;99.90
10296;DHT22;5193;51.032;6.356;2022-12-18T07:49:54;-5.50;99.90
10296;DHT22;5193;51.032;6.356;2022-12-18T07:52:20;-5.50;99.90
10296;DHT22;5193;51.032;6.356;2022-12-18T07:54:46;-5.50;99.90
10296;DHT22;5193;51.032;6.356;2022-12-18T07:57:14;-5.40;99.90
10296;DHT22;5193;51.032;6.356;2022-12-18T07:59:40;-5.40;99.90
10296;DHT22;5193;51.032;6.356;2022-12-18T08:02:06;-5.40;99.90
10296;DHT22;5193;51.032;6.356;2022-12-18T08:04:31;-5.40;99.90
10296;DHT22;5193;51.032;6.356;2022-12-18T08:06:57;-5.30;99.90
10296;DHT22;5193;51.032;6.356;2022-12-18T08:09:22;-5.30;99.90
10296;DHT22;5193;51.032;6.356;2022-12-18T08:11:48;-5.30;99.90
10296;DHT22;5193;51.032;6.356;2022-12-18T08:14:14;-5.20;99.90
10296;DHT22;5193;51.032;6.356;2022-12-18T08:16:40;-5.20;99.90
10296;DHT22;5193;51.032;6.356;2022-12-18T08:19:05;-5.20;99.90
10296;DHT22;5193;51.032;6.356;2022-12-18T08:21:31;-5.20;99.90
10296;DHT22;5193;51.032;6.356;2022-12-18T08:23:59;-5.00;99.90
10296;DHT22;5193;51.032;6.356;2022-12-18T08:26:27;-5.00;99.90
10296;DHT22;5193;51.032;6.356;2022-12-18T08:28:54;-4.90;99.90
10296;DHT22;5193;51.032;6.356;2022-12-18T08:31:20;-4.90;99.90
10296;DHT22;5193;51.032;6.356;2022-12-18T08:33:49;-4.90;99.90
10296;DHT22;5193;51.032;6.356;2022-12-18T08:36:15;-4.80;99.90
10296;DHT22;5193;51.032;6.356;2022-12-18T08:38:40;-4.80;99.90
10296;DHT22;5193;51.032;6.356;2022-12-18T08:41:09;-4.80;99.90
10296;DHT22;5193;51.032;6.356;2022-12-18T08:43:34;-4.70;99.90
10296;DHT22;5193;51.032;6.356;2022-12-18T08:46:19;-4.70;99.90
10296;DHT22;5193;51.032;6.356;2022-12-18T08:48:45;-2.90;99.90
10296;DHT22;5193;51.032;6.356;2022-12-18T08:51:11;-4.60;99.90
10296;DHT22;5193;51.032;6.356;2022-12-18T08:53:38;-4.50;99.90
10296;DHT22;5193;51.032;6.356;2022-12-18T08:56:04;-4.50;99.90
10296;DHT22;5193;51.032;6.356;2022-12-18T08:58:30;-4.40;99.90
10296;DHT22;5193;51.032;6.356;2022-12-18T09:01:00;-4.30;99.90
10296;DHT22;5193;51.032;6.356;2022-12-18T09:03:27;-4.30;99.90
10296;DHT22;5193;51.032;6.356;2022-12-18T09:05:54;-4.30;99.90
10296;DHT22;5193;51.032;6.356;2022-12-18T09:08:19;-4.30;99.90
10296;DHT22;5193;51.032;6.356;2022-12-18T09:10:47;-4.20;99.90
10296;DHT22;5193;51.032;6.356;2022-12-18T09:13:13;-4.20;99.90
10296;DHT22;5193;51.032;6.356;2022-12-18T09:15:45;-4.10;99.90
10296;DHT22;5193;51.032;6.356;2022-12-18T09:18:12;-4.10;99.90
10296;DHT22;5193;51.032;6.356;2022-12-18T09:20:38;-4.00;99.90
10296;DHT22;5193;51.032;6.356;2022-12-18T09:23:05;-3.90;99.90
10296;DHT22;5193;51.032;6.356;2022-12-18T09:25:31;-3.90;99.90
10296;DHT22;5193;51.032;6.356;2022-12-18T09:27:59;-3.80;99.90
10296;DHT22;5193;51.032;6.356;2022-12-18T09:30:25;-3.70;99.90
10296;DHT22;5193;51.032;6.356;2022-12-18T09:32:51;-3.60;99.90
10296;DHT22;5193;51.032;6.356;2022-12-18T09:35:16;-3.50;99.90
10296;DHT22;5193;51.032;6.356;2022-12-18T09:37:42;-3.50;99.90
10296;DHT22;5193;51.032;6.356;2022-12-18T09:40:14;-3.40;99.90
10296;DHT22;5193;51.032;6.356;2022-12-18T09:42:40;-3.40;99.90
10296;DHT22;5193;51.032;6.356;2022-12-18T09:45:12;-3.30;99.90
10296;DHT22;5193;51.032;6.356;2022-12-18T09:47:40;-3.30;99.90
10296;DHT22;5193;51.032;6.356;2022-12-18T09:50:24;-3.20;99.90
10296;DHT22;5193;51.032;6.356;2022-12-18T09:52:54;-3.10;99.90
10296;DHT22;5193;51.032;6.356;2022-12-18T09:55:43;-3.10;99.90
10296;DHT22;5193;51.032;6.356;2022-12-18T09:58:20;-3.00;99.90
10296;DHT22;5193;51.032;6.356;2022-12-18T10:00:48;-3.00;99.90
10296;DHT22;5193;51.032;6.356;2022-12-18T10:03:16;-2.90;99.90
10296;DHT22;5193;51.032;6.356;2022-12-18T10:05:56;-2.90;99.90
10296;DHT22;5193;51.032;6.356;2022-12-18T10:08:49;-2.80;99.90
10296;DHT22;5193;51.032;6.356;2022-12-18T10:17:14;-2.60;99.90
10296;DHT22;5193;51.032;6.356;2022-12-18T10:19:53;-2.50;99.90
10296;DHT22;5193;51.032;6.356;2022-12-18T10:22:44;-2.50;99.90
10296;DHT22;5193;51.032;6.356;2022-12-18T10:25:39;-2.40;99.90
10296;DHT22;5193;51.032;6.356;2022-12-18T10:28:13;-2.30;99.90
10296;DHT22;5193;51.032;6.356;2022-12-18T10:30:40;-2.30;99.90
10296;DHT22;5193;51.032;6.356;2022-12-18T10:33:13;-2.20;99.90
10296;DHT22;5193;51.032;6.356;2022-12-18T10:35:41;-2.20;99.90
10296;DHT22;5193;51.032;6.356;2022-12-18T10:38:22;-2.20;99.90
10296;DHT22;5193;51.032;6.356;2022-12-18T10:43:43;-2.10;99.90
10296;DHT22;5193;51.032;6.356;2022-12-18T10:48:48;-2.10;99.90
10296;DHT22;5193;51.032;6.356;2022-12-18T10:51:27;-2.00;99.90
10296;DHT22;5193;51.032;6.356;2022-12-18T10:54:05;-2.00;99.90
10296;DHT22;5193;51.032;6.356;2022-12-18T10:56:33;-2.00;99.90
10296;DHT22;5193;51.032;6.356;2022-12-18T10:59:02;-1.90;99.90
10296;DHT22;5193;51.032;6.356;2022-12-18T11:04:31;-1.90;99.90
10296;DHT22;5193;51.032;6.356;2022-12-18T11:06:58;-1.80;99.90
10296;DHT22;5193;51.032;6.356;2022-12-18T11:09:32;-1.80;99.90
10296;DHT22;5193;51.032;6.356;2022-12-18T11:12:15;-1.70;99.90
10296;DHT22;5193;51.032;6.356;2022-12-18T11:19:59;-1.70;99.90
10296;DHT22;5193;51.032;6.356;2022-12-18T11:22:27;-1.60;99.90
10296;DHT22;5193;51.032;6.356;2022-12-18T11:24:55;-1.60;99.90
10296;DHT22;5193;51.032;6.356;2022-12-18T11:27:21;-1.60;99.90
10296;DHT22;5193;51.032;6.356;2022-12-18T11:29:50;-1.50;99.90
10296;DHT22;5193;51.032;6.356;2022-12-18T11:32:44;-1.50;99.90
10296;DHT22;5193;51.032;6.356;2022-12-18T11:35:23;-1.40;99.90
10296;DHT22;5193;51.032;6.356;2022-12-18T11:37:57;-1.40;99.90
10296;DHT22;5193;51.032;6.356;2022-12-18T11:40:33;-1.40;99.90
10296;DHT22;5193;51.032;6.356;2022-12-18T11:43:38;-1.30;99.90
10296;DHT22;5193;51.032;6.356;2022-12-18T11:46:15;-1.30;99.90
10296;DHT22;5193;51.032;6.356;2022-12-18T11:48:53;-1.30;99.90
10296;DHT22;5193;51.032;6.356;2022-12-18T11:51:38;-1.20;99.90
10296;DHT22;5193;51.032;6.356;2022-12-18T11:54:14;-0.90;99.90
10296;DHT22;5193;51.032;6.356;2022-12-18T11:56:48;-1.20;99.90
10296;DHT22;5193;51.032;6.356;2022-12-18T12:02:42;-1.10;99.90
10296;DHT22;5193;51.032;6.356;2022-12-18T12:08:00;-1.10;99.90
10296;DHT22;5193;51.032;6.356;2022-12-18T12:16:02;-1.10;99.90
10296;DHT22;5193;51.032;6.356;2022-12-18T12:18:47;-1.10;99.90
10296;DHT22;5193;51.032;6.356;2022-12-18T12:27:05;-1.00;99.90
10296;DHT22;5193;51.032;6.356;2022-12-18T12:29:44;-1.00;99.90
10296;DHT22;5193;51.032;6.356;2022-12-18T12:35:37;-0.90;99.90
10296;DHT22;5193;51.032;6.356;2022-12-18T12:38:24;-0.90;99.90
10296;DHT22;5193;51.032;6.356;2022-12-18T12:41:04;-0.90;99.90
10296;DHT22;5193;51.032;6.356;2022-12-18T12:43:43;-0.90;99.90
10296;DHT22;5193;51.032;6.356;2022-12-18T12:46:11;-0.90;99.90
10296;DHT22;5193;51.032;6.356;2022-12-18T12:48:47;-0.80;99.90
10296;DHT22;5193;51.032;6.356;2022-12-18T12:51:35;-0.90;99.90
10296;DHT22;5193;51.032;6.356;2022-12-18T12:54:05;-0.80;99.90
10296;DHT22;5193;51.032;6.356;2022-12-18T12:56:45;-0.90;99.90
10296;DHT22;5193;51.032;6.356;2022-12-18T12:59:25;-0.90;99.90
10296;DHT22;5193;51.032;6.356;2022-12-18T13:04:40;-0.90;99.90
10296;DHT22;5193;51.032;6.356;2022-12-18T13:13:06;-0.90;99.90
10296;DHT22;5193;51.032;6.356;2022-12-18T13:16:03;-0.90;99.90
10296;DHT22;5193;51.032;6.356;2022-12-18T13:18:29;-0.90;99.90
10296;DHT22;5193;51.032;6.356;2022-12-18T13:31:08;-0.80;99.90
10296;DHT22;5193;51.032;6.356;2022-12-18T13:33:40;-0.80;99.90
10296;DHT22;5193;51.032;6.356;2022-12-18T13:36:30;-0.80;99.90
10296;DHT22;5193;51.032;6.356;2022-12-18T13:39:31;-0.80;99.90
10296;DHT22;5193;51.032;6.356;2022-12-18T13:44:36;-0.90;99.90
10296;DHT22;5193;51.032;6.356;2022-12-18T13:47:04;-0.80;99.90
10296;DHT22;5193;51.032;6.356;2022-12-18T13:49:36;-0.90;99.90
10296;DHT22;5193;51.032;6.356;2022-12-18T13:52:03;-0.80;99.90
10296;DHT22;5193;51.032;6.356;2022-12-18T13:54:40;-0.90;99.90
10296;DHT22;5193;51.032;6.356;2022-12-18T13:57:32;-0.90;99.90
10296;DHT22;5193;51.032;6.356;2022-12-18T14:00:16;-0.90;99.90
10296;DHT22;5193;51.032;6.356;2022-12-18T14:02:45;-0.90;99.90
10296;DHT22;5193;51.032;6.356;2022-12-18T14:05:27;-0.90;99.90
10296;DHT22;5193;51.032;6.356;2022-12-18T14:07:54;-0.90;99.90
10296;DHT22;5193;51.032;6.356;2022-12-18T14:10:21;-0.90;99.90
10296;DHT22;5193;51.032;6.356;2022-12-18T14:12:48;-0.90;99.90
10296;DHT22;5193;51.032;6.356;2022-12-18T14:20:31;-1.00;99.90
10296;DHT22;5193;51.032;6.356;2022-12-18T14:22:58;-1.00;99.90
10296;DHT22;5193;51.032;6.356;2022-12-18T14:25:29;-1.00;99.90
10296;DHT22;5193;51.032;6.356;2022-12-18T14:28:13;-1.00;99.90
10296;DHT22;5193;51.032;6.356;2022-12-18T14:30:45;-1.00;99.90
10296;DHT22;5193;51.032;6.356;2022-12-18T14:33:16;-1.00;99.90
10296;DHT22;5193;51.032;6.356;2022-12-18T14:38:29;-1.10;99.90
10296;DHT22;5193;51.032;6.356;2022-12-18T14:41:04;-1.10;99.90
10296;DHT22;5193;51.032;6.356;2022-12-18T14:43:35;-1.10;99.90
10296;DHT22;5193;51.032;6.356;2022-12-18T14:46:03;-1.10;99.90
10296;DHT22;5193;51.032;6.356;2022-12-18T14:48:40;-1.10;99.90
10296;DHT22;5193;51.032;6.356;2022-12-18T14:51:21;-1.20;99.90
10296;DHT22;5193;51.032;6.356;2022-12-18T14:53:53;-1.20;99.90
10296;DHT22;5193;51.032;6.356;2022-12-18T14:56:31;-1.20;99.90
10296;DHT22;5193;51.032;6.356;2022-12-18T14:59:05;-1.10;99.90
10296;DHT22;5193;51.032;6.356;2022-12-18T15:04:33;-1.20;99.90
10296;DHT22;5193;51.032;6.356;2022-12-18T15:09:36;-1.20;99.90
10296;DHT22;5193;51.032;6.356;2022-12-18T15:12:02;-1.20;99.90
10296;DHT22;5193;51.032;6.356;2022-12-18T15:14:32;-1.10;99.90
10296;DHT22;5193;51.032;6.356;2022-12-18T15:16:59;-1.20;99.90
10296;DHT22;5193;51.032;6.356;2022-12-18T15:19:33;-1.20;99.90
10296;DHT22;5193;51.032;6.356;2022-12-18T15:22:00;-1.20;99.90
10296;DHT22;5193;51.032;6.356;2022-12-18T15:24:30;-1.20;99.90
10296;DHT22;5193;51.032;6.356;2022-12-18T15:26:56;-1.20;99.90
10296;DHT22;5193;51.032;6.356;2022-12-18T15:29:22;-1.20;99.90
10296;DHT22;5193;51.032;6.356;2022-12-18T15:32:05;-1.20;99.90
10296;DHT22;5193;51.032;6.356;2022-12-18T15:34:39;-1.20;99.90
10296;DHT22;5193;51.032;6.356;2022-12-18T15:37:07;-1.30;99.90
10296;DHT22;5193;51.032;6.356;2022-12-18T15:39:32;-1.20;99.90
10296;DHT22;5193;51.032;6.356;2022-12-18T15:42:00;-1.30;99.90
10296;DHT22;5193;51.032;6.356;2022-12-18T15:44:44;-1.30;99.90
10296;DHT22;5193;51.032;6.356;2022-12-18T15:47:11;-1.30;99.90
10296;DHT22;5193;51.032;6.356;2022-12-18T15:49:37;-1.30;99.90
10296;DHT22;5193;51.032;6.356;2022-12-18T15:52:03;-1.30;99.90
10296;DHT22;5193;51.032;6.356;2022-12-18T15:54:29;-1.30;99.90
10296;DHT22;5193;51.032;6.356;2022-12-18T15:57:13;-1.30;99.90
10296;DHT22;5193;51.032;6.356;2022-12-18T15:59:48;-1.30;99.90
10296;DHT22;5193;51.032;6.356;2022-12-18T16:02:17;-1.30;99.90
10296;DHT22;5193;51.032;6.356;2022-12-18T16:04:43;-1.30;99.90
10296;DHT22;5193;51.032;6.356;2022-12-18T16:07:09;-1.30;99.90
10296;DHT22;5193;51.032;6.356;2022-12-18T16:09:36;-1.30;99.90
10296;DHT22;5193;51.032;6.356;2022-12-18T16:12:01;-1.30;99.90
10296;DHT22;5193;51.032;6.356;2022-12-18T16:14:30;-1.30;99.90
10296;DHT22;5193;51.032;6.356;2022-12-18T16:16:59;-1.30;99.90
10296;DHT22;5193;51.032;6.356;2022-12-18T16:19:25;-1.30;99.90
10296;DHT22;5193;51.032;6.356;2022-12-18T16:21:53;-1.30;99.90
10296;DHT22;5193;51.032;6.356;2022-12-18T16:24:22;-1.30;99.90
10296;DHT22;5193;51.032;6.356;2022-12-18T16:26:49;-1.30;99.90
10296;DHT22;5193;51.032;6.356;2022-12-18T16:29:16;-1.30;99.90
10296;DHT22;5193;51.032;6.356;2022-12-18T16:31:42;-1.30;99.90
10296;DHT22;5193;51.032;6.356;2022-12-18T16:34:23;-1.40;99.90
10296;DHT22;5193;51.032;6.356;2022-12-18T16:36:51;-1.30;99.90
10296;DHT22;5193;51.032;6.356;2022-12-18T16:39:17;-1.40;99.90
10296;DHT22;5193;51.032;6.356;2022-12-18T16:41:43;-1.40;99.90
10296;DHT22;5193;51.032;6.356;2022-12-18T16:44:09;-1.40;99.90
10296;DHT22;5193;51.032;6.356;2022-12-18T16:46:35;-1.40;99.90
10296;DHT22;5193;51.032;6.356;2022-12-18T16:49:01;-1.40;99.90
10296;DHT22;5193;51.032;6.356;2022-12-18T16:51:27;-1.40;99.90
10296;DHT22;5193;51.032;6.356;2022-12-18T16:53:54;-1.40;99.90
10296;DHT22;5193;51.032;6.356;2022-12-18T16:56:20;-1.40;99.90
10296;DHT22;5193;51.032;6.356;2022-12-18T16:58:57;-1.40;99.90
10296;DHT22;5193;51.032;6.356;2022-12-18T17:01:24;-1.40;99.90
10296;DHT22;5193;51.032;6.356;2022-12-18T17:03:55;-1.30;99.90
10296;DHT22;5193;51.032;6.356;2022-12-18T17:06:21;-1.30;99.90
10296;DHT22;5193;51.032;6.356;2022-12-18T17:08:49;-1.30;99.90
10296;DHT22;5193;51.032;6.356;2022-12-18T17:11:19;-1.30;99.90
10296;DHT22;5193;51.032;6.356;2022-12-18T17:13:44;-1.20;99.90
10296;DHT22;5193;51.032;6.356;2022-12-18T17:16:10;-1.20;99.90
10296;DHT22;5193;51.032;6.356;2022-12-18T17:18:36;-1.30;99.90
10296;DHT22;5193;51.032;6.356;2022-12-18T17:21:04;-1.30;99.90
10296;DHT22;5193;51.032;6.356;2022-12-18T17:23:31;-1.20;99.90
10296;DHT22;5193;51.032;6.356;2022-12-18T17:25:58;-1.20;99.90